Charlotte, Texas
Current Conditions -  °F | °C
As of 9:35 PM on Saturday 22 Nov 2014 (Local Time) from KPEZ Reporting Station
Clear Clear  
Wind Chill: 59°   Ceiling: Unl
Heat Index: 59°   Visibility: 10mi
Dew Point: 56°   Wind: 7mph
Humidity: 89%   Direction: 90°E
Pressure: 29.78"   Gusts: NA
Location:  28.86°N, 98.71°W
Report Text: KPEZ 230335Z AUTO 09006KT 10SM CLR 15/13 A2978 RMK AO2 T01500132
Loading
Personal Weather Stations






























Interactive Weather Map New forecast layout! Learn more

10-Day Weather Forecast

Advertisements
Track Severe Weather on mobile